createdAt,value
2023-05-09T00:02:07.904Z,8.93
2023-05-09T00:04:35.364Z,9.57
2023-05-09T00:07:02.137Z,15.27
2023-05-09T00:09:28.772Z,12.02
2023-05-09T00:11:55.554Z,10.50
2023-05-09T00:14:22.140Z,10.05
2023-05-09T00:16:49.205Z,10.50
2023-05-09T00:19:15.959Z,10.65
2023-05-09T00:21:42.743Z,11.30
2023-05-09T00:24:09.290Z,13.23
2023-05-09T00:26:35.995Z,9.32
2023-05-09T00:29:02.650Z,11.40
2023-05-09T00:31:29.435Z,11.65
2023-05-09T00:33:56.080Z,12.25
2023-05-09T00:36:23.349Z,14.23
2023-05-09T00:38:50.064Z,13.25
2023-05-09T00:41:16.785Z,11.07
2023-05-09T00:43:43.384Z,10.77
2023-05-09T00:46:10.179Z,8.32
2023-05-09T00:48:36.852Z,11.13
2023-05-09T00:51:04.864Z,8.68
2023-05-09T00:53:31.653Z,10.10
2023-05-09T00:56:00.286Z,11.02
2023-05-09T00:58:27.511Z,11.38
2023-05-09T01:00:54.243Z,12.68
2023-05-09T01:03:21.170Z,11.20
2023-05-09T01:06:26.568Z,13.93
2023-05-09T01:09:01.248Z,9.07
2023-05-09T01:12:05.412Z,10.70
2023-05-09T01:14:50.589Z,13.15
2023-05-09T01:17:46.828Z,11.70
2023-05-09T01:20:24.358Z,9.38
2023-05-09T01:23:01.995Z,9.75
2023-05-09T01:25:38.034Z,12.05
2023-05-09T01:28:14.303Z,11.07
2023-05-09T01:30:45.813Z,11.27
2023-05-09T01:33:18.093Z,12.13
2023-05-09T01:35:52.147Z,12.57
2023-05-09T01:38:23.079Z,10.23
2023-05-09T01:40:54.436Z,12.20
2023-05-09T01:43:23.595Z,15.95
2023-05-09T01:45:52.460Z,15.00
2023-05-09T01:48:21.706Z,13.88
2023-05-09T01:50:49.089Z,13.80
2023-05-09T01:53:17.766Z,15.77
2023-05-09T01:55:45.925Z,12.23
2023-05-09T01:58:13.409Z,18.30
2023-05-09T02:00:41.114Z,15.25
2023-05-09T02:03:08.974Z,14.65
2023-05-09T02:05:37.278Z,11.60
2023-05-09T02:08:04.157Z,12.77
2023-05-09T02:10:34.256Z,19.25
2023-05-09T02:13:01.268Z,12.55
2023-05-09T02:15:29.523Z,13.90
2023-05-09T02:17:56.695Z,11.23
2023-05-09T02:20:23.381Z,15.38
2023-05-09T02:22:50.644Z,10.70
2023-05-09T02:25:18.596Z,11.52
2023-05-09T02:27:46.649Z,10.82
2023-05-09T02:30:23.320Z,11.70
2023-05-09T02:32:53.736Z,9.75
2023-05-09T02:35:23.026Z,12.55
2023-05-09T02:37:49.912Z,11.00
2023-05-09T02:40:17.779Z,11.68
2023-05-09T02:42:44.594Z,17.27
2023-05-09T02:45:11.505Z,10.23
2023-05-09T02:47:38.998Z,13.55
2023-05-09T02:50:06.456Z,12.77
2023-05-09T02:52:35.504Z,12.50
2023-05-09T02:55:03.054Z,12.57
2023-05-09T02:57:31.147Z,13.05
2023-05-09T02:59:57.787Z,18.67
2023-05-09T03:02:24.811Z,16.35
2023-05-09T03:04:51.820Z,11.05
2023-05-09T03:07:18.845Z,15.32
2023-05-09T03:09:45.575Z,11.63
2023-05-09T03:12:12.903Z,11.23
2023-05-09T03:14:39.602Z,11.32
2023-05-09T03:17:06.309Z,15.32
2023-05-09T03:19:35.588Z,11.02
2023-05-09T03:22:02.479Z,10.25
2023-05-09T03:24:32.377Z,13.52
2023-05-09T03:26:59.053Z,11.60
2023-05-09T03:29:25.969Z,11.30
2023-05-09T03:31:54.045Z,9.98
2023-05-09T03:34:20.707Z,13.95
2023-05-09T03:36:47.910Z,10.70
2023-05-09T03:39:15.354Z,10.05
2023-05-09T03:41:45.269Z,14.02
2023-05-09T03:44:12.665Z,16.83
2023-05-09T03:46:39.311Z,12.10
2023-05-09T03:49:06.637Z,8.95
2023-05-09T03:51:34.476Z,12.45
2023-05-09T03:54:05.024Z,9.20
2023-05-09T03:56:32.444Z,9.98
2023-05-09T03:58:59.670Z,10.88
2023-05-09T04:01:27.619Z,15.45
2023-05-09T04:03:57.726Z,7.75
2023-05-09T04:06:25.812Z,16.60
2023-05-09T04:08:52.599Z,9.43
2023-05-09T04:11:19.264Z,9.73
2023-05-09T04:13:47.643Z,13.57
2023-05-09T04:16:25.163Z,12.02
2023-05-09T04:18:51.924Z,12.32
2023-05-09T04:21:18.548Z,10.38
2023-05-09T04:23:48.542Z,11.85
2023-05-09T04:26:17.989Z,11.98
2023-05-09T04:28:47.811Z,15.10
2023-05-09T04:31:16.258Z,15.52
2023-05-09T04:33:46.849Z,12.75
2023-05-09T04:36:13.553Z,15.07
2023-05-09T04:38:40.682Z,18.17
2023-05-09T04:41:11.810Z,13.75
2023-05-09T04:43:38.463Z,12.15
2023-05-09T04:46:07.796Z,12.30
2023-05-09T04:48:35.959Z,14.80
2023-05-09T04:51:02.724Z,16.33
2023-05-09T04:53:29.627Z,13.57
2023-05-09T04:55:57.184Z,11.70
2023-05-09T04:58:25.643Z,11.70
2023-05-09T05:00:53.292Z,15.80
2023-05-09T05:03:20.113Z,12.63
2023-05-09T05:05:47.130Z,12.00
2023-05-09T05:08:14.057Z,12.40
2023-05-09T05:10:42.142Z,10.93
2023-05-09T05:13:11.896Z,11.07
2023-05-09T05:15:43.310Z,12.27
2023-05-09T05:18:10.728Z,10.32
2023-05-09T05:20:41.607Z,10.75
2023-05-09T05:23:09.064Z,12.90
2023-05-09T05:25:35.742Z,11.07
2023-05-09T05:28:02.554Z,10.68
2023-05-09T05:30:29.410Z,12.25
2023-05-09T05:32:56.299Z,11.50
2023-05-09T05:35:24.658Z,12.75
2023-05-09T05:37:52.763Z,11.07
2023-05-09T05:40:19.910Z,10.95
2023-05-09T05:42:48.607Z,10.35
2023-05-09T05:45:16.589Z,8.82
2023-05-09T05:47:48.039Z,9.23
2023-05-09T05:50:15.114Z,11.23
2023-05-09T05:52:42.443Z,12.48
2023-05-09T05:55:13.111Z,11.65
2023-05-09T05:57:40.616Z,12.10
2023-05-09T06:00:12.313Z,17.40
2023-05-09T06:02:47.944Z,12.00
2023-05-09T06:05:22.602Z,13.50
2023-05-09T06:07:50.466Z,10.93
2023-05-09T06:10:17.252Z,13.38
2023-05-09T06:12:45.540Z,9.63
2023-05-09T06:15:12.551Z,9.18
2023-05-09T06:17:43.147Z,9.63
2023-05-09T06:20:10.086Z,10.18
2023-05-09T06:22:36.740Z,11.95
2023-05-09T06:25:03.516Z,14.77
2023-05-09T06:27:30.429Z,12.82
2023-05-09T06:29:57.148Z,10.25
2023-05-09T06:32:25.066Z,12.18
2023-05-09T06:34:52.688Z,12.60
2023-05-09T06:37:19.369Z,10.88
2023-05-09T06:39:46.005Z,12.45
2023-05-09T06:42:12.821Z,11.32
2023-05-09T06:44:39.807Z,13.50
2023-05-09T06:47:06.532Z,14.13
2023-05-09T06:49:33.314Z,12.23
2023-05-09T06:51:59.908Z,13.20
2023-05-09T06:54:26.580Z,13.05
2023-05-09T06:56:53.578Z,13.13
2023-05-09T06:59:20.408Z,13.18
2023-05-09T07:01:47.051Z,10.70
2023-05-09T07:04:13.745Z,14.18
2023-05-09T07:06:40.430Z,15.18
2023-05-09T07:09:07.151Z,11.95
2023-05-09T07:11:37.644Z,10.95
2023-05-09T07:14:04.477Z,11.05
2023-05-09T07:16:32.065Z,11.10
2023-05-09T07:18:59.321Z,12.27
2023-05-09T07:21:26.028Z,11.52
2023-05-09T07:23:52.743Z,10.80
2023-05-09T07:26:19.454Z,12.05
2023-05-09T07:28:46.153Z,12.25
2023-05-09T07:31:12.767Z,12.55
2023-05-09T07:33:39.666Z,11.65
2023-05-09T07:36:06.412Z,14.38
2023-05-09T07:38:33.136Z,15.02
2023-05-09T07:40:59.715Z,19.00
2023-05-09T07:43:27.253Z,12.85
2023-05-09T07:45:54.092Z,11.15
2023-05-09T07:48:20.835Z,14.80
2023-05-09T07:50:47.560Z,11.65
2023-05-09T07:53:14.321Z,10.27
2023-05-09T07:55:41.118Z,13.60
2023-05-09T07:58:07.909Z,10.60
2023-05-09T08:00:34.532Z,14.82
2023-05-09T08:03:01.873Z,12.38
2023-05-09T08:05:28.878Z,11.13
2023-05-09T08:07:55.571Z,9.80
2023-05-09T08:10:23.268Z,9.32
2023-05-09T08:12:50.062Z,10.23
2023-05-09T08:15:17.124Z,8.07
2023-05-09T08:17:44.396Z,8.38
2023-05-09T08:20:12.008Z,7.82
2023-05-09T08:22:39.790Z,9.43
2023-05-09T08:25:08.183Z,8.38
2023-05-09T08:27:35.001Z,6.95
2023-05-09T08:30:01.684Z,8.82
2023-05-09T08:32:28.467Z,6.43
2023-05-09T08:34:55.174Z,6.90
2023-05-09T08:37:21.952Z,8.32
2023-05-09T08:39:48.631Z,8.65
2023-05-09T08:42:18.812Z,9.05
2023-05-09T08:44:45.689Z,8.73
2023-05-09T08:47:13.401Z,6.47
2023-05-09T08:49:41.015Z,6.43
2023-05-09T08:52:08.282Z,7.38
2023-05-09T08:54:35.941Z,8.10
2023-05-09T08:57:03.178Z,6.85
2023-05-09T08:59:30.969Z,5.43
2023-05-09T09:01:58.418Z,5.53
2023-05-09T09:04:25.122Z,4.63
2023-05-09T09:06:53.870Z,5.43
2023-05-09T09:09:21.427Z,7.60
2023-05-09T09:11:48.441Z,6.82
2023-05-09T09:14:25.596Z,7.43
2023-05-09T09:16:54.607Z,5.78
2023-05-09T09:19:22.731Z,6.72
2023-05-09T09:21:54.002Z,6.00
2023-05-09T09:24:23.068Z,8.80
2023-05-09T09:26:51.478Z,5.13
2023-05-09T09:29:18.965Z,7.28
2023-05-09T09:31:46.688Z,5.72
2023-05-09T09:34:20.341Z,4.00
2023-05-09T09:36:48.460Z,5.43
2023-05-09T09:39:15.933Z,5.85
2023-05-09T09:41:44.646Z,4.65
2023-05-09T09:44:16.734Z,4.90
2023-05-09T09:46:45.035Z,6.95
2023-05-09T09:49:13.432Z,6.75
2023-05-09T09:51:41.060Z,7.10
2023-05-09T09:54:12.736Z,5.63
2023-05-09T09:56:41.697Z,7.85
2023-05-09T09:59:18.840Z,7.55
2023-05-09T10:02:04.941Z,6.03
2023-05-09T10:04:39.073Z,4.32
2023-05-09T10:07:08.419Z,8.73
2023-05-09T10:09:37.983Z,5.35
2023-05-09T10:12:06.579Z,5.75
2023-05-09T10:14:35.638Z,6.55
2023-05-09T10:17:05.067Z,8.10
2023-05-09T10:19:33.186Z,5.75
2023-05-09T10:22:05.998Z,6.28
2023-05-09T10:24:43.622Z,7.10
2023-05-09T10:27:11.778Z,6.80
2023-05-09T10:29:44.521Z,5.82
2023-05-09T10:32:40.420Z,5.57
2023-05-09T10:35:10.776Z,5.03
2023-05-09T10:37:37.800Z,6.13
2023-05-09T10:40:05.288Z,5.45
2023-05-09T10:42:32.238Z,4.95
2023-05-09T10:44:58.920Z,7.40
2023-05-09T10:47:28.010Z,6.45
2023-05-09T10:49:55.331Z,5.65
2023-05-09T10:52:25.046Z,6.15
2023-05-09T10:55:02.131Z,6.85
2023-05-09T10:57:30.622Z,7.25
2023-05-09T10:59:58.840Z,8.50
2023-05-09T11:02:29.499Z,6.43
2023-05-09T11:05:16.737Z,7.10
2023-05-09T11:07:43.800Z,6.55
2023-05-09T11:10:16.675Z,5.75
2023-05-09T11:12:58.047Z,9.05
2023-05-09T11:15:27.417Z,7.93
2023-05-09T11:18:12.854Z,9.55
2023-05-09T11:20:43.965Z,6.60
2023-05-09T11:23:11.841Z,6.75
2023-05-09T11:25:42.218Z,7.32
2023-05-09T11:28:08.858Z,6.85
2023-05-09T11:30:40.159Z,5.72
2023-05-09T11:33:21.110Z,7.43
2023-05-09T11:35:48.274Z,5.85
2023-05-09T11:38:21.324Z,5.93
2023-05-09T11:40:48.634Z,7.60
2023-05-09T11:43:15.821Z,6.65
2023-05-09T11:45:42.873Z,8.50
2023-05-09T11:48:10.416Z,6.20
2023-05-09T11:50:37.370Z,5.78
2023-05-09T11:53:04.003Z,6.07
2023-05-09T11:55:32.557Z,6.78
2023-05-09T11:57:59.470Z,5.93
2023-05-09T12:00:26.601Z,7.20
2023-05-09T12:02:54.055Z,5.95
2023-05-09T12:05:22.943Z,7.25
2023-05-09T12:07:49.806Z,7.45
2023-05-09T12:10:20.166Z,5.82
2023-05-09T12:12:50.969Z,5.70
2023-05-09T12:15:19.338Z,7.93
2023-05-09T12:17:48.171Z,5.55
2023-05-09T12:20:16.536Z,7.55
2023-05-09T12:22:44.129Z,8.00
2023-05-09T12:25:12.083Z,8.50
2023-05-09T12:27:40.481Z,5.93
2023-05-09T12:30:10.255Z,6.35
2023-05-09T12:32:39.499Z,6.72
2023-05-09T12:35:10.930Z,6.18
2023-05-09T12:37:38.848Z,7.03
2023-05-09T12:40:15.424Z,6.32
2023-05-09T12:42:46.049Z,6.43
2023-05-09T12:45:13.455Z,5.72
2023-05-09T12:47:41.940Z,5.90
2023-05-09T12:50:11.787Z,7.80
2023-05-09T12:52:54.169Z,6.05
2023-05-09T12:55:27.956Z,7.53
2023-05-09T12:58:02.695Z,6.35
2023-05-09T13:00:41.365Z,8.30
2023-05-09T13:03:31.247Z,8.57
2023-05-09T13:06:00.036Z,6.68
2023-05-09T13:08:27.956Z,8.90
2023-05-09T13:11:04.024Z,8.00
2023-05-09T13:13:41.909Z,8.15
2023-05-09T13:16:10.380Z,8.70
2023-05-09T13:18:38.365Z,10.07
2023-05-09T13:21:05.042Z,7.90
2023-05-09T13:23:31.739Z,6.55
2023-05-09T13:25:58.348Z,9.48
2023-05-09T13:28:25.177Z,8.90
2023-05-09T13:30:51.846Z,7.60
2023-05-09T13:33:25.945Z,7.72
2023-05-09T13:35:53.768Z,6.30
2023-05-09T13:38:20.453Z,7.88
2023-05-09T13:40:47.095Z,7.93
2023-05-09T13:43:13.666Z,8.60
2023-05-09T13:45:40.551Z,10.43
2023-05-09T13:48:07.197Z,7.88
2023-05-09T13:50:34.326Z,6.82
2023-05-09T13:53:01.047Z,7.45
2023-05-09T13:55:27.823Z,7.25
2023-05-09T13:57:54.958Z,6.80
2023-05-09T14:00:22.283Z,6.72
2023-05-09T14:02:49.003Z,10.68
2023-05-09T14:05:17.041Z,8.30
2023-05-09T14:07:44.997Z,7.68
2023-05-09T14:10:12.608Z,9.15
2023-05-09T14:12:40.599Z,8.15
2023-05-09T14:15:08.285Z,5.90
2023-05-09T14:17:35.132Z,6.90
2023-05-09T14:20:02.196Z,8.82
2023-05-09T14:22:28.762Z,9.70
2023-05-09T14:24:57.275Z,7.50
2023-05-09T14:27:25.129Z,8.10
2023-05-09T14:29:51.945Z,9.45
2023-05-09T14:32:18.568Z,8.32
2023-05-09T14:34:45.993Z,8.63
2023-05-09T14:37:15.466Z,8.75
2023-05-09T14:39:43.542Z,9.77
2023-05-09T14:42:11.733Z,8.25
2023-05-09T14:44:39.195Z,7.50
2023-05-09T14:47:06.141Z,7.55
2023-05-09T14:49:33.098Z,7.00
2023-05-09T14:52:00.173Z,10.23
2023-05-09T14:54:27.064Z,7.85
2023-05-09T14:56:53.720Z,9.07
2023-05-09T14:59:23.537Z,8.30
2023-05-09T15:01:52.632Z,7.88
2023-05-09T15:04:19.437Z,7.03
2023-05-09T15:06:46.289Z,9.00
2023-05-09T15:09:14.705Z,6.90
2023-05-09T15:11:48.193Z,7.88
2023-05-09T15:14:16.558Z,8.52
2023-05-09T15:16:43.617Z,8.98
2023-05-09T15:19:10.461Z,8.35
2023-05-09T15:21:37.088Z,7.55
2023-05-09T15:24:04.922Z,6.72
2023-05-09T15:26:32.040Z,8.75
2023-05-09T15:28:58.774Z,6.65
2023-05-09T15:31:25.963Z,7.75
2023-05-09T15:33:52.915Z,7.47
2023-05-09T15:36:19.606Z,8.70
2023-05-09T15:38:49.377Z,7.93
2023-05-09T15:41:17.248Z,6.75
2023-05-09T15:43:44.020Z,10.38
2023-05-09T15:46:11.143Z,11.38
2023-05-09T15:48:37.764Z,7.85
2023-05-09T15:51:04.776Z,11.02
2023-05-09T15:53:31.647Z,10.88
2023-05-09T15:55:58.300Z,8.43
2023-05-09T15:58:25.169Z,7.72
2023-05-09T16:00:51.956Z,8.48
2023-05-09T16:03:19.411Z,8.77
2023-05-09T16:05:46.320Z,7.40
2023-05-09T16:08:13.129Z,7.50
2023-05-09T16:10:40.788Z,8.00
2023-05-09T16:13:07.800Z,10.93
2023-05-09T16:15:35.149Z,9.25
2023-05-09T16:18:01.820Z,9.13
2023-05-09T16:20:28.515Z,9.25
2023-05-09T16:22:55.183Z,9.48
2023-05-09T16:25:21.974Z,11.75
2023-05-09T16:27:48.612Z,9.73
2023-05-09T16:30:16.137Z,9.27
2023-05-09T16:32:43.349Z,8.90
2023-05-09T16:35:10.292Z,10.80
2023-05-09T16:37:37.485Z,9.65
2023-05-09T16:40:04.841Z,12.43
2023-05-09T16:42:31.682Z,9.60
2023-05-09T16:44:58.337Z,9.38
2023-05-09T16:47:25.061Z,11.40
2023-05-09T16:49:51.993Z,14.82
2023-05-09T16:52:19.217Z,15.23
2023-05-09T16:54:46.151Z,18.25
2023-05-09T16:57:13.287Z,16.83
2023-05-09T16:59:40.296Z,15.88
2023-05-09T17:02:07.182Z,15.40
2023-05-09T17:04:36.757Z,16.38
2023-05-09T17:07:04.264Z,18.63
2023-05-09T17:09:30.856Z,17.08
2023-05-09T17:11:57.546Z,14.30
2023-05-09T17:14:24.572Z,18.88
2023-05-09T17:16:51.702Z,16.70
2023-05-09T17:19:20.527Z,20.02
2023-05-09T17:21:47.328Z,16.90
2023-05-09T17:24:13.981Z,16.02
2023-05-09T17:26:40.719Z,14.82
2023-05-09T17:29:07.406Z,15.13
2023-05-09T17:31:34.178Z,17.88
2023-05-09T17:34:01.419Z,15.50
2023-05-09T17:36:28.169Z,16.38
2023-05-09T17:38:54.751Z,14.27
2023-05-09T17:41:21.982Z,14.93
2023-05-09T17:43:48.700Z,15.25
2023-05-09T17:46:15.525Z,15.48
2023-05-09T17:48:42.537Z,14.57
2023-05-09T17:51:09.195Z,15.23
2023-05-09T17:53:35.830Z,15.35
2023-05-09T17:56:02.962Z,14.10
2023-05-09T17:58:30.070Z,21.65
2023-05-09T18:00:58.618Z,16.27
2023-05-09T18:03:32.367Z,14.35
2023-05-09T18:06:00.345Z,16.42
2023-05-09T18:08:27.534Z,18.10
2023-05-09T18:10:57.214Z,15.40
2023-05-09T18:13:24.292Z,15.43
2023-05-09T18:15:51.379Z,14.77
2023-05-09T18:18:18.234Z,15.65
2023-05-09T18:20:47.102Z,13.65
2023-05-09T18:23:14.965Z,19.27
2023-05-09T18:25:42.019Z,18.60
2023-05-09T18:28:08.959Z,17.48
2023-05-09T18:30:36.226Z,18.48
2023-05-09T18:33:03.188Z,19.70
2023-05-09T18:35:30.216Z,16.95
2023-05-09T18:37:57.073Z,21.20
2023-05-09T18:40:23.889Z,15.88
2023-05-09T18:42:50.435Z,16.52
2023-05-09T18:45:17.094Z,15.85
2023-05-09T18:47:43.699Z,20.92
2023-05-09T18:50:11.113Z,17.23
2023-05-09T18:52:37.689Z,20.60
2023-05-09T18:55:05.869Z,17.42
2023-05-09T18:57:33.854Z,16.65
2023-05-09T19:00:00.700Z,16.30
2023-05-09T19:02:27.575Z,15.57
2023-05-09T19:04:54.353Z,13.65
2023-05-09T19:07:21.051Z,15.75
2023-05-09T19:09:47.754Z,15.63
2023-05-09T19:12:16.324Z,15.73
2023-05-09T19:14:43.335Z,15.75
2023-05-09T19:17:10.839Z,16.00
2023-05-09T19:19:37.658Z,20.20
2023-05-09T19:22:04.863Z,18.95
2023-05-09T19:24:32.969Z,13.18
2023-05-09T19:26:59.612Z,15.18
2023-05-09T19:29:26.355Z,15.15
2023-05-09T19:31:53.049Z,17.00
2023-05-09T19:34:19.807Z,16.55
2023-05-09T19:36:46.449Z,17.08
2023-05-09T19:39:13.185Z,15.68
2023-05-09T19:41:40.644Z,13.20
2023-05-09T19:44:07.398Z,17.58
2023-05-09T19:46:35.259Z,16.35
2023-05-09T19:49:02.101Z,20.17
2023-05-09T19:51:29.648Z,15.40
2023-05-09T19:53:56.474Z,14.65
2023-05-09T19:56:23.181Z,18.83
2023-05-09T19:58:50.376Z,16.27
2023-05-09T20:01:19.059Z,17.60
2023-05-09T20:03:47.001Z,18.42
2023-05-09T20:06:13.815Z,20.08
2023-05-09T20:08:40.754Z,18.23
2023-05-09T20:11:07.849Z,22.77
2023-05-09T20:13:34.745Z,17.08
2023-05-09T20:16:03.241Z,18.85
2023-05-09T20:18:33.217Z,17.73
2023-05-09T20:21:03.875Z,16.70
2023-05-09T20:23:31.131Z,16.80
2023-05-09T20:25:57.918Z,17.23
2023-05-09T20:28:24.703Z,17.45
2023-05-09T20:30:51.398Z,20.67
2023-05-09T20:33:19.066Z,13.38
2023-05-09T20:35:45.828Z,18.80
2023-05-09T20:38:12.642Z,14.55
2023-05-09T20:40:40.361Z,17.63
2023-05-09T20:43:07.137Z,16.63
2023-05-09T20:45:33.971Z,16.80
2023-05-09T20:48:01.738Z,17.13
2023-05-09T20:50:28.748Z,16.52
2023-05-09T20:52:55.629Z,18.10
2023-05-09T20:55:22.450Z,13.18
2023-05-09T20:57:49.178Z,17.25
2023-05-09T21:00:16.550Z,15.38
2023-05-09T21:02:43.473Z,15.68
2023-05-09T21:05:10.400Z,15.15
2023-05-09T21:07:37.092Z,14.95
2023-05-09T21:10:04.029Z,16.88
2023-05-09T21:12:34.004Z,17.83
2023-05-09T21:15:03.115Z,16.17
2023-05-09T21:17:29.726Z,14.95
2023-05-09T21:19:56.622Z,18.38
2023-05-09T21:22:23.812Z,16.45
2023-05-09T21:24:51.006Z,15.25
2023-05-09T21:27:17.779Z,20.90
2023-05-09T21:29:44.589Z,17.35
2023-05-09T21:32:11.198Z,18.38
2023-05-09T21:34:37.903Z,15.88
2023-05-09T21:37:04.485Z,18.27
2023-05-09T21:39:32.536Z,19.85
2023-05-09T21:42:00.113Z,17.48
2023-05-09T21:44:26.797Z,16.75
2023-05-09T21:46:53.487Z,16.45
2023-05-09T21:49:21.652Z,16.23
2023-05-09T21:51:48.330Z,16.25
2023-05-09T21:54:15.256Z,16.45
2023-05-09T21:56:42.677Z,17.73
2023-05-09T21:59:09.438Z,15.57
2023-05-09T22:01:36.865Z,16.63
2023-05-09T22:04:03.822Z,10.70
2023-05-09T22:06:31.305Z,12.52
2023-05-09T22:08:58.021Z,12.48
2023-05-09T22:11:24.887Z,10.93
2023-05-09T22:13:52.033Z,10.20
2023-05-09T22:16:18.702Z,9.98
2023-05-09T22:18:45.413Z,8.63
2023-05-09T22:21:12.676Z,8.02
2023-05-09T22:23:39.445Z,6.05
2023-05-09T22:26:06.486Z,7.63
2023-05-09T22:28:33.157Z,8.05
2023-05-09T22:30:59.758Z,6.90
2023-05-09T22:33:26.414Z,5.05
2023-05-09T22:35:53.036Z,7.25
2023-05-09T22:38:19.688Z,6.05
2023-05-09T22:40:46.351Z,6.93
2023-05-09T22:43:13.051Z,6.13
2023-05-09T22:45:39.700Z,5.95
2023-05-09T22:48:06.694Z,6.85
2023-05-09T22:50:33.366Z,7.07
2023-05-09T22:53:00.344Z,6.22
2023-05-09T22:55:27.259Z,5.80
2023-05-09T22:57:53.982Z,4.93
2023-05-09T23:00:20.686Z,4.20
2023-05-09T23:02:47.671Z,7.82
2023-05-09T23:05:14.322Z,4.05
2023-05-09T23:07:41.034Z,3.40
2023-05-09T23:10:08.077Z,3.58
2023-05-09T23:12:34.792Z,3.72
2023-05-09T23:15:01.469Z,3.55
2023-05-09T23:17:28.184Z,4.20
2023-05-09T23:19:54.782Z,5.53
2023-05-09T23:22:21.637Z,2.03
2023-05-09T23:24:48.448Z,3.50
2023-05-09T23:27:15.197Z,3.30
2023-05-09T23:29:41.833Z,4.57
2023-05-09T23:32:08.577Z,4.28
2023-05-09T23:34:36.684Z,3.50
2023-05-09T23:37:04.224Z,5.03
2023-05-09T23:39:31.527Z,2.95
2023-05-09T23:41:58.289Z,1.95
2023-05-09T23:44:25.597Z,1.80
2023-05-09T23:46:52.415Z,2.38
2023-05-09T23:49:19.134Z,3.10
2023-05-09T23:51:45.777Z,1.92
2023-05-09T23:54:12.476Z,2.72
2023-05-09T23:56:39.148Z,2.58
2023-05-09T23:59:05.785Z,2.38
